地図

経路データ

SID SEASON NUMBER BASIN SUBBASIN NAME ISO_TIME NATURE LAT LON WMO_WIND WMO_PRES WMO_AGENCY TRACK_TYPE DIST2LAND LANDFALL IFLAG USA_AGENCY USA_ATCF_ID USA_LAT USA_LON USA_RECORD USA_STATUS USA_WIND USA_PRES USA_SSHS USA_R34_NE USA_R34_SE USA_R34_SW USA_R34_NW USA_R50_NE USA_R50_SE USA_R50_SW USA_R50_NW USA_R64_NE USA_R64_SE USA_R64_SW USA_R64_NW USA_POCI USA_ROCI USA_RMW USA_EYE TOKYO_LAT TOKYO_LON TOKYO_GRADE TOKYO_WIND TOKYO_PRES TOKYO_R50_DIR TOKYO_R50_LONG TOKYO_R50_SHORT TOKYO_R30_DIR TOKYO_R30_LONG TOKYO_R30_SHORT TOKYO_LAND CMA_LAT CMA_LON CMA_CAT CMA_WIND CMA_PRES HKO_LAT HKO_LON HKO_CAT HKO_WIND HKO_PRES NEWDELHI_LAT NEWDELHI_LON NEWDELHI_GRADE NEWDELHI_WIND NEWDELHI_PRES NEWDELHI_CI NEWDELHI_DP NEWDELHI_POCI REUNION_LAT REUNION_LON REUNION_TYPE REUNION_WIND REUNION_PRES REUNION_TNUM REUNION_CI REUNION_RMW REUNION_R34_NE REUNION_R34_SE REUNION_R34_SW REUNION_R34_NW REUNION_R50_NE REUNION_R50_SE REUNION_R50_SW REUNION_R50_NW REUNION_R64_NE REUNION_R64_SE REUNION_R64_SW REUNION_R64_NW BOM_LAT BOM_LON BOM_TYPE BOM_WIND BOM_PRES BOM_TNUM BOM_CI BOM_RMW BOM_R34_NE BOM_R34_SE BOM_R34_SW BOM_R34_NW BOM_R50_NE BOM_R50_SE BOM_R50_SW BOM_R50_NW BOM_R64_NE BOM_R64_SE BOM_R64_SW BOM_R64_NW BOM_ROCI BOM_POCI BOM_EYE BOM_POS_METHOD BOM_PRES_METHOD NADI_LAT NADI_LON NADI_CAT NADI_WIND NADI_PRES WELLINGTON_LAT WELLINGTON_LON WELLINGTON_WIND WELLINGTON_PRES DS824_LAT DS824_LON DS824_STAGE DS824_WIND DS824_PRES TD9636_LAT TD9636_LON TD9636_STAGE TD9636_WIND TD9636_PRES TD9635_LAT TD9635_LON TD9635_WIND TD9635_PRES TD9635_ROCI NEUMANN_LAT NEUMANN_LON NEUMANN_CLASS NEUMANN_WIND NEUMANN_PRES MLC_LAT MLC_LON MLC_CLASS MLC_WIND MLC_PRES USA_GUST BOM_GUST BOM_GUST_PER REUNION_GUST REUNION_GUST_PER USA_SEAHGT USA_SEARAD_NE USA_SEARAD_SE USA_SEARAD_SW USA_SEARAD_NW STORM_SPEED STORM_DIR
1994212N11240 1994 59 EP MM LI 1994-07-30 18:00:00 NR 11.4000 239.600 main 1694 1694 O_____________ jtwc_ep EP081994 11.4000 -120.400 25 -1 10 287
1994212N11240 1994 59 EP MM LI 1994-07-30 21:00:00 NR 11.5401 239.120 main 1721 1712 P_____________ EP081994 11.5401 -120.880 25 -1 10 287
1994212N11240 1994 59 EP MM LI 1994-07-31 00:00:00 NR 11.7000 238.600 main 1740 1740 O_____________ jtwc_ep EP081994 11.7000 -121.400 25 -1 11 288
1994212N11240 1994 59 EP MM LI 1994-07-31 03:00:00 NR 11.8925 238.015 main 1769 1769 P_____________ EP081994 11.8925 -121.985 25 -1 12 289
1994212N11240 1994 59 EP MM LI 1994-07-31 06:00:00 NR 12.1000 237.400 main 1790 1790 O_____________ jtwc_ep EP081994 12.1000 -122.600 25 -1 12 289
1994212N11240 1994 59 EP MM LI 1994-07-31 09:00:00 NR 12.2922 236.822 main 1812 1812 P_____________ EP081994 12.2848 -123.185 25 -1 12 289
1994212N11240 1994 59 EP MM LI 1994-07-31 12:00:00 NR 12.5000 236.200 main 1837 1837 O_____________ jtwc_ep EP081994 12.5000 -123.800 25 -1 14 291
1994212N11240 1994 59 EP MM LI 1994-07-31 15:00:00 NR 12.7873 235.488 main 1862 1862 P_____________ EP081994 12.8447 -124.462 25 -1 15 290
1994212N11240 1994 59 EP MM LI 1994-07-31 18:00:00 TS 13.0333 234.733 25 hurdat_epa main 1905 1905 O_____________ hurdat_epa EP081994 13.1000 -125.200 TD 25 -1 16 278
1994212N11240 1994 59 EP MM LI 1994-07-31 21:00:00 TS 13.0027 233.907 main 1967 1967 P_____________ EP081994 13.0599 -126.028 TD 25 -1 16 265
1994212N11240 1994 59 EP MM LI 1994-08-01 00:00:00 TS 12.9000 233.060 25 hurdat_epa main 2037 2037 O_____________ hurdat_epa EP081994 12.9000 -126.900 TD 25 -1 17 263
1994212N11240 1994 59 EP MM LI 1994-08-01 03:00:00 TS 12.7948 232.214 main 2117 2117 P_____________ EP081994 12.7922 -127.750 TD 25 -1 17 263
1994212N11240 1994 59 EP MM LI 1994-08-01 06:00:00 TS 12.7000 231.367 25 hurdat_epa main 2190 2190 O_____________ hurdat_epa EP081994 12.7000 -128.600 TD 25 -1 16 265
1994212N11240 1994 59 EP MM LI 1994-08-01 09:00:00 TS 12.6422 230.533 main 2263 2263 P_____________ EP081994 12.6422 -129.450 TD 25 -1 16 266
1994212N11240 1994 59 EP MM LI 1994-08-01 12:00:00 TS 12.6000 229.700 25 hurdat_epa main 2319 2319 O_____________ hurdat_epa EP081994 12.6000 -130.300 TD 25 -1 17 267
1994212N11240 1994 59 EP MM LI 1994-08-01 15:00:00 TS 12.5498 228.845 main 2392 2392 P_____________ EP081994 12.5498 -131.157 TD 25 -1 17 267
1994212N11240 1994 59 EP MM LI 1994-08-01 18:00:00 TS 12.5000 228.000 25 hurdat_epa main 2451 2451 O_____________ hurdat_epa EP081994 12.5000 -132.000 TD 25 -1 16 267
1994212N11240 1994 59 EP MM LI 1994-08-01 21:00:00 TS 12.4573 227.178 main 2476 2399 P_____________ EP081994 12.4573 -132.822 TD 25 -1 16 266
1994212N11240 1994 59 EP MM LI 1994-08-02 00:00:00 TS 12.4000 226.400 25 hurdat_epa main 2399 2333 O_____________ hurdat_epa EP081994 12.4000 -133.600 TD 25 -1 15 264
1994212N11240 1994 59 EP MM LI 1994-08-02 03:00:00 TS 12.2996 225.692 main 2333 2268 P_____________ EP081994 12.2996 -134.308 TD 25 -1 14 262
1994212N11240 1994 59 EP MM LI 1994-08-02 06:00:00 TS 12.2000 225.000 25 hurdat_epa main 2268 2198 O_____________ hurdat_epa EP081994 12.2000 -135.000 TD 25 -1 14 264
1994212N11240 1994 59 EP MM LI 1994-08-02 09:00:00 TS 12.1599 224.248 main 2188 2124 P_____________ EP081994 12.1574 -135.750 TD 25 -1 15 266
1994212N11240 1994 59 EP MM LI 1994-08-02 12:00:00 TS 12.1000 223.500 25 hurdat_epa main 2124 2060 O_____________ hurdat_epa EP081994 12.1000 -136.500 TD 25 -1 14 262
1994212N11240 1994 59 EP MM LI 1994-08-02 15:00:00 TS 11.9507 222.797 main 2060 2012 P_____________ EP081994 11.9649 -137.223 TD 27 -1 14 256
1994212N11240 1994 59 EP MM LI 1994-08-02 18:00:00 TS 11.7667 222.133 30 hurdat_epa main 2002 1955 O_____________ hurdat_epa EP081994 11.8000 -137.900 TD 30 -1 13 255
1994212N11240 1994 59 EP MM LI 1994-08-02 21:00:00 TS 11.5999 221.482 main 1955 1910 P_____________ EP081994 11.6574 -138.537 TD 30 -1 13 255
1994212N11240 1994 59 EP MM LI 1994-08-03 00:00:00 TS 11.4333 220.900 30 hurdat_epa main 1910 1868 O_____________ hurdat_epa EP081994 11.5000 -139.100 TD 30 -1 11 251
1994212N11240 1994 59 EP MM LI 1994-08-03 03:00:00 TS 11.2490 220.418 main 1874 1843 P_____________ EP081994 11.2849 -139.580 TD 27 -1 9 249
1994212N11240 1994 59 EP CP LI 1994-08-03 06:00:00 TS 11.1000 220.000 25 hurdat_epa main 1843 1806 O_____________ hurdat_epa EP081994 11.1000 -140.000 TD 25 -1 8 256
1994212N11240 1994 59 EP CP LI 1994-08-03 09:00:00 TS 11.0537 219.624 main 1806 1776 P_____________ EP081994 11.0273 -140.377 TD 27 -1 8 263
1994212N11240 1994 59 EP CP LI 1994-08-03 12:00:00 TS 11.0000 219.200 30 hurdat_epa main 1776 1744 O_____________ hurdat_epa EP081994 11.0000 -140.800 TD 30 -1 10 257
1994212N11240 1994 59 EP CP LI 1994-08-03 15:00:00 TS 10.8280 218.652 main 1744 1689 P_____________ EP081994 10.9574 -141.347 TD 27 -1 12 255
1994212N11240 1994 59 EP CP LI 1994-08-03 18:00:00 TS 10.6750 218.000 25 hurdat_epa main 1689 1629 O_____________ hurdat_epa EP081994 10.9000 -142.000 TD 25 -1 14 264
1994212N11240 1994 59 EP CP LI 1994-08-03 21:00:00 TS 10.6780 217.280 main 1629 1561 P_____________ EP081994 10.8074 -142.720 TD 25 -1 15 271
1994212N11240 1994 59 EP CP LI 1994-08-04 00:00:00 TS 10.7000 216.500 25 hurdat_epa main 1561 1503 O_____________ hurdat_epa EP081994 10.7000 -143.500 TD 25 -1 16 268
1994212N11240 1994 59 EP CP LI 1994-08-04 03:00:00 TS 10.6169 215.685 main 1503 1448 P_____________ EP081994 10.6000 -144.315 TD 25 -1 16 263
1994212N11240 1994 59 EP CP LI 1994-08-04 06:00:00 TS 10.5000 214.900 25 hurdat_epa main 1448 1410 O_____________ hurdat_epa EP081994 10.5000 -145.100 TD 25 -1 14 261
1994212N11240 1994 59 EP CP LI 1994-08-04 09:00:00 TS 10.3997 214.235 main 1403 1366 P_____________ EP081994 10.3997 -145.765 TD 25 -1 13 261
1994212N11240 1994 59 EP CP LI 1994-08-04 12:00:00 TS 10.3000 213.600 25 hurdat_epa main 1366 1325 O_____________ hurdat_epa EP081994 10.3000 -146.400 TD 25 -1 13 262
1994212N11240 1994 59 EP CP LI 1994-08-04 15:00:00 TS 10.2149 212.908 main 1325 1288 P_____________ EP081994 10.2149 -147.092 TD 25 -1 14 262
1994212N11240 1994 59 EP CP LI 1994-08-04 18:00:00 TS 10.1000 212.200 25 hurdat_epa main 1288 1269 O_____________ hurdat_epa EP081994 10.1000 -147.800 TD 25 -1 14 256
1994212N11240 1994 59 EP CP LI 1994-08-04 21:00:00 TS 9.88471 211.522 main 1263 1242 P_____________ EP081994 9.88471 -148.478 TD 25 -1 14 254
1994212N11240 1994 59 EP CP LI 1994-08-05 00:00:00 TS 9.70000 210.800 25 hurdat_epa main 1242 1198 O_____________ hurdat_epa EP081994 9.70000 -149.200 TD 25 -1 15 261
1994212N11240 1994 59 EP CP LI 1994-08-05 03:00:00 TS 9.65489 209.980 main 1198 1157 P_____________ EP081994 9.65489 -150.020 TD 25 -1 17 270
1994212N11240 1994 59 EP CP LI 1994-08-05 06:00:00 TS 9.70000 209.100 25 hurdat_epa main 1152 1112 O_____________ hurdat_epa EP081994 9.70000 -150.900 TD 25 -1 18 273
1994212N11240 1994 59 EP CP LI 1994-08-05 09:00:00 TS 9.75499 208.185 main 1101 1057 P_____________ EP081994 9.75499 -151.815 TD 25 -1 18 276
1994212N11240 1994 59 EP CP LI 1994-08-05 12:00:00 TS 9.90000 207.300 25 hurdat_epa main 1057 1002 O_____________ hurdat_epa EP081994 9.90000 -152.700 TD 25 -1 17 284
1994212N11240 1994 59 EP CP LI 1994-08-05 15:00:00 TS 10.1774 206.498 main 1002 954 P_____________ EP081994 10.1774 -153.502 TD 25 -1 16 292
1994212N11240 1994 59 EP CP LI 1994-08-05 18:00:00 TS 10.5000 205.800 25 hurdat_epa main 954 923 O_____________ hurdat_epa EP081994 10.5000 -154.200 TD 25 -1 14 294
1994212N11240 1994 59 EP CP LI 1994-08-05 21:00:00 TS 10.7499 205.182 main 923 885 P_____________ EP081994 10.7499 -154.818 TD 25 -1 12 295
1994212N11240 1994 59 EP CP LI 1994-08-06 00:00:00 TS 11.0000 204.700 25 hurdat_epa main 885 850 O_____________ hurdat_epa EP081994 11.0000 -155.300 TD 25 -1 10 304
1994212N11240 1994 59 EP CP LI 1994-08-06 03:00:00 TS 11.2923 204.362 main 850 817 P_____________ EP081994 11.2923 -155.638 TD 25 -1 8 316
1994212N11240 1994 59 EP CP LI 1994-08-06 06:00:00 TS 11.6000 204.100 25 hurdat_epa main 817 784 O_____________ hurdat_epa EP081994 11.6000 -155.900 TD 25 -1 8 320
1994212N11240 1994 59 EP CP LI 1994-08-06 09:00:00 TS 11.9148 203.830 main 785 753 P_____________ EP081994 11.9148 -156.170 TD 25 -1 8 316
1994212N11240 1994 59 EP CP LI 1994-08-06 12:00:00 TS 12.2000 203.500 25 hurdat_epa main 754 737 O_____________ hurdat_epa EP081994 12.2000 -156.500 TD 25 -1 9 302
1994212N11240 1994 59 EP CP LI 1994-08-06 15:00:00 TS 12.4151 203.022 main 740 728 P_____________ EP081994 12.4151 -156.978 TD 25 -1 11 292
1994212N11240 1994 59 EP CP LI 1994-08-06 18:00:00 TS 12.6000 202.500 25 hurdat_epa main 730 722 O_____________ hurdat_epa EP081994 12.6000 -157.500 TD 25 -1 10 292
1994212N11240 1994 59 EP CP LI 1994-08-06 21:00:00 TS 12.7999 202.035 main 725 716 P_____________ EP081994 12.7999 -157.965 TD 25 -1 10 295
1994212N11240 1994 59 EP CP LI 1994-08-07 00:00:00 TS 13.0000 201.600 25 hurdat_epa main 720 713 O_____________ hurdat_epa EP081994 13.0000 -158.400 TD 25 -1 9 297
1994212N11240 1994 59 EP CP LI 1994-08-07 03:00:00 TS 13.2224 201.193 main 718 713 P_____________ EP081994 13.2224 -158.807 TD 25 -1 9 297
1994212N11240 1994 59 EP CP LI 1994-08-07 06:00:00 TS 13.4000 200.800 25 hurdat_epa main 720 720 O_____________ hurdat_epa EP081994 13.4000 -159.200 TD 25 -1 8 289
1994212N11240 1994 59 EP CP LI 1994-08-07 09:00:00 TS 13.4798 200.426 main 733 733 P_____________ EP081994 13.4798 -159.570 TD 25 -1 8 277
1994212N11240 1994 59 EP CP LI 1994-08-07 12:00:00 TS 13.5000 200.000 25 hurdat_epa main 758 758 O_____________ hurdat_epa EP081994 13.5000 -160.000 TD 25 -1 9 272
1994212N11240 1994 59 EP CP LI 1994-08-07 15:00:00 TS 13.5075 199.451 main 792 792 P_____________ EP081994 13.5076 -160.578 TD 25 -1 11 270
1994212N11240 1994 59 EP CP LI 1994-08-07 18:00:00 TS 13.5000 198.850 25 hurdat_epa main 842 842 O_____________ hurdat_epa EP081994 13.5000 -161.200 TD 25 -1 11 270
1994212N11240 1994 59 EP CP LI 1994-08-07 21:00:00 TS 13.4998 198.279 main 880 880 P_____________ EP081994 13.4998 -161.750 TD 25 -1 11 270
1994212N11240 1994 59 EP CP LI 1994-08-08 00:00:00 TS 13.5000 197.700 25 hurdat_epa main 926 926 O_____________ hurdat_epa EP081994 13.5000 -162.300 TD 25 -1 11 270
1994212N11240 1994 59 EP CP LI 1994-08-08 03:00:00 TS 13.4998 197.111 main 975 975 P_____________ EP081994 13.4999 -162.885 TD 27 -1 12 270
1994212N11240 1994 59 EP CP LI 1994-08-08 06:00:00 TS 13.5000 196.500 30 hurdat_epa main 1024 1024 O_____________ hurdat_epa EP081994 13.5000 -163.500 TD 30 -1 12 270
1994212N11240 1994 59 EP CP LI 1994-08-08 09:00:00 TS 13.4998 195.872 main 1054 1054 P_____________ EP081994 13.4998 -164.128 TD 35 0 13 270
1994212N11240 1994 59 EP CP LI 1994-08-08 12:00:00 TS 13.5000 195.200 40 hurdat_epa main 1088 1088 O_____________ hurdat_epa EP081994 13.5000 -164.800 TS 40 0 14 270
1994212N11240 1994 59 EP CP LI 1994-08-08 15:00:00 TS 13.4926 194.442 main 1131 1131 P_____________ EP081994 13.4926 -165.558 TS 42 0 15 270
1994212N11240 1994 59 EP CP LI 1994-08-08 18:00:00 TS 13.5000 193.700 45 hurdat_epa main 1173 1173 O_____________ hurdat_epa EP081994 13.5000 -166.300 TS 45 0 14 272
1994212N11240 1994 59 EP CP LI 1994-08-08 21:00:00 TS 13.5499 193.040 main 1218 1209 P_____________ EP081994 13.5499 -166.960 TS 47 0 12 275
1994212N11240 1994 59 EP CP LI 1994-08-09 00:00:00 TS 13.6000 192.500 50 hurdat_epa main 1243 1243 O_____________ hurdat_epa EP081994 13.6000 -167.500 TS 50 0 9 274
1994212N11240 1994 59 EP CP LI 1994-08-09 03:00:00 TS 13.6072 192.127 main 1271 1271 P_____________ EP081994 13.6072 -167.873 TS 50 0 7 270
1994212N11240 1994 59 EP CP LI 1994-08-09 06:00:00 TS 13.6000 191.800 50 hurdat_epa main 1293 1293 O_____________ hurdat_epa EP081994 13.6000 -168.200 TS 50 0 7 269
1994212N11240 1994 59 EP CP LI 1994-08-09 09:00:00 TS 13.6000 191.365 main 1322 1322 P_____________ EP081994 13.6000 -168.635 TS 47 0 9 270
1994212N11240 1994 59 EP CP LI 1994-08-09 12:00:00 TS 13.6000 190.900 45 hurdat_epa main 1360 1360 O_____________ hurdat_epa EP081994 13.6000 -169.100 TS 45 0 9 270
1994212N11240 1994 59 EP CP LI 1994-08-09 15:00:00 TS 13.6074 190.458 main 1391 1391 P_____________ EP081994 13.6074 -169.542 TS 45 0 9 270
1994212N11240 1994 59 EP CP LI 1994-08-09 18:00:00 TS 13.6000 190.000 45 hurdat_epa main 1430 1430 O_____________ hurdat_epa EP081994 13.6000 -170.000 TS 45 0 10 266
1994212N11240 1994 59 EP CP LI 1994-08-09 21:00:00 TS 13.5426 189.477 main 1478 1478 P_____________ EP081994 13.5426 -170.523 TS 45 0 10 264
1994212N11240 1994 59 EP CP LI 1994-08-10 00:00:00 TS 13.5000 189.000 45 hurdat_epa main 1519 1519 O_____________ hurdat_epa EP081994 13.5000 -171.000 TS 45 0 8 269
1994212N11240 1994 59 EP CP LI 1994-08-10 03:00:00 TS 13.5348 188.670 main 1544 1544 P_____________ EP081994 13.5348 -171.330 TS 45 0 6 280
1994212N11240 1994 59 EP CP LI 1994-08-10 06:00:00 TS 13.6000 188.400 45 hurdat_epa main 1562 1562 O_____________ hurdat_epa EP081994 13.6000 -171.600 TS 45 0 6 281
1994212N11240 1994 59 EP CP LI 1994-08-10 09:00:00 TS 13.6425 188.092 main 1587 1587 P_____________ EP081994 13.6425 -171.908 TS 45 0 6 280
1994212N11240 1994 59 EP CP LI 1994-08-10 12:00:00 TS 13.7000 187.800 45 hurdat_epa main 1606 1606 O_____________ hurdat_epa EP081994 13.7000 -172.200 TS 45 0 6 287
1994212N11240 1994 59 EP CP LI 1994-08-10 15:00:00 TS 13.8074 187.550 main 1617 1617 P_____________ EP081994 13.8074 -172.450 TS 47 0 5 292
1994212N11240 1994 59 EP CP LI 1994-08-10 18:00:00 TS 13.9000 187.300 50 hurdat_epa main 1636 1636 O_____________ hurdat_epa EP081994 13.9000 -172.700 TS 50 0 5 283
1994212N11240 1994 59 EP CP LI 1994-08-10 21:00:00 TS 13.9224 187.030 main 1663 1663 P_____________ EP081994 13.9224 -172.970 TS 50 0 6 270
1994212N11240 1994 59 EP CP LI 1994-08-11 00:00:00 TS 13.9000 186.700 50 hurdat_epa main 1689 1689 O_____________ hurdat_epa EP081994 13.9000 -173.300 TS 50 0 7 266
1994212N11240 1994 59 EP CP LI 1994-08-11 03:00:00 TS 13.8650 186.273 main 1725 1725 P_____________ EP081994 13.8650 -173.727 TS 47 0 9 263
1994212N11240 1994 59 EP CP LI 1994-08-11 06:00:00 TS 13.8000 185.800 45 hurdat_epa main 1776 1776 O_____________ hurdat_epa EP081994 13.8000 -174.200 TS 45 0 9 260
1994212N11240 1994 59 EP CP LI 1994-08-11 09:00:00 TS 13.7131 185.346 main 1828 1828 P_____________ EP081994 13.7149 -174.650 TS 45 0 9 257
1994212N11240 1994 59 EP CP LI 1994-08-11 12:00:00 TS 13.6000 184.900 45 hurdat_epa main 1870 1870 O_____________ hurdat_epa EP081994 13.6000 -175.100 TS 45 0 9 254
1994212N11240 1994 59 EP CP LI 1994-08-11 15:00:00 TS 13.4737 184.471 main 1913 1913 P_____________ EP081994 13.4574 -175.550 TS 47 0 9 252
1994212N11240 1994 59 EP CP LI 1994-08-11 18:00:00 TS 13.3250 184.050 50 hurdat_epa main 1962 1971 O_____________ hurdat_epa EP081994 13.3000 -176.000 TS 50 0 9 248
1994212N11240 1994 59 EP CP LI 1994-08-11 21:00:00 TS 13.1499 183.634 main 2019 2019 P_____________ EP081994 13.1499 -176.442 TS 52 0 9 247
1994212N11240 1994 59 EP CP LI 1994-08-12 00:00:00 TS 12.9750 183.200 55 hurdat_epa main 2062 2062 O_____________ hurdat_epa EP081994 13.0000 -176.900 TS 55 0 10 250
1994212N11240 1994 59 EP CP LI 1994-08-12 03:00:00 TS 12.8206 182.722 main 2120 2120 P_____________ EP081994 12.8349 -177.393 TS 57 0 10 254
1994212N11240 1994 59 EP CP LI 1994-08-12 06:00:00 TS 12.7000 182.225 60 hurdat_epa main 2172 2172 O_____________ hurdat_epa EP081994 12.7000 -177.900 TS 60 0 10 258
1994212N11240 1994 59 EP CP LI 1994-08-12 09:00:00 TS 12.6186 181.741 main 2225 2225 P_____________ EP081994 12.6274 -178.400 TS 62 0 10 263
1994212N11240 1994 59 EP CP LI 1994-08-12 12:00:00 TS 12.5800 181.220 65 hurdat_epa main 2271 2271 O_____________ hurdat_epa EP081994 12.6000 -178.900 HU 65 1 10 266
1994212N11240 1994 59 EP CP LI 1994-08-12 15:00:00 TS 12.5513 180.683 main 2318 2318 P_____________ EP081994 12.5698 -179.385 HU 62 0 11 271
1994212N11240 1994 59 EP CP LI 1994-08-12 18:00:00 TS 12.6000 180.087 60 hurdat_epa main 2375 2375 OOOO__________ hurdat_epa EP081994 12.6000 -179.900 TS 60 0 12.6000 180.500 7 45 992 0 9 120 120 0 12.6000 179.500 1 23 1004 12.8000 179.900 TS 40 996 12 280
1994212N11240 1994 59 WP MM LI 1994-08-12 21:00:00 TS 12.7548 179.492 main 2422 2422 PPPP__________ EP081994 12.7201 179.500 TS 57 0 12.8131 179.750 7 42 993 0 9 120 120 12.7824 179.355 1 26 1001 12.8777 179.440 TS 40 996 11 287
1994212N11240 1994 59 WP MM LI 1994-08-13 00:00:00 TS 12.9429 178.971 40 994 tokyo main 2465 2465 OOOO__________ hurdat_epa EP081994 12.9000 178.900 TS 55 0 13.0000 179.100 3 40 994 0 9 120 120 0 13.0000 179.100 1 29 998 13.0000 179.000 TS 40 996 10 292
1994212N11240 1994 59 WP MM LI 1994-08-13 03:00:00 TS 13.1436 178.503 main 2503 2498 PPPP__________ EP081994 13.0849 178.377 TS 52 0 13.1497 178.612 3 40 995 0 9 115 115 13.2652 178.673 1 33 996 13.1924 178.593 TS 37 997 10 294
1994212N11240 1994 59 WP MM LI 1994-08-13 06:00:00 TS 13.3500 178.050 40 996 tokyo main 2527 2527 OOOO__________ hurdat_epa EP081994 13.3000 177.900 TS 50 0 13.3000 178.200 3 40 996 0 9 110 110 0 13.5000 178.200 2 38 995 13.4000 178.200 TS 35 998 10 296
1994212N11240 1994 59 WP MM LI 1994-08-13 09:00:00 TS 13.5536 177.622 main 2567 2567 PPPP__________ EP081994 13.5499 177.442 TS 47 0 13.4999 177.750 3 40 996 0 9 110 110 13.6148 177.842 2 38 995 13.5574 177.815 TS 32 999 9 296
1994212N11240 1994 59 WP MM LI 1994-08-13 12:00:00 TS 13.7500 177.200 40 996 tokyo main 2597 2597 OOOO__________ hurdat_epa EP081994 13.8000 177.000 TS 45 0 13.7000 177.300 3 40 996 0 9 110 110 0 13.7000 177.500 2 38 995 13.7000 177.400 TD 30 1000 9 294
1994212N11240 1994 59 WP MM LI 1994-08-13 15:00:00 TS 13.9211 176.765 main 2632 2632 PPPP__________ EP081994 13.9999 176.557 TS 42 0 13.8574 176.857 3 40 996 0 9 110 110 13.8348 177.137 2 38 995 13.8349 176.922 TD 30 1000 9 292
1994212N11240 1994 59 WP MM LI 1994-08-13 18:00:00 TS 14.1000 176.300 40 996 tokyo main 2673 2673 OOOO__________ hurdat_epa EP081994 14.2000 176.100 TS 40 0 14.0000 176.400 3 40 996 0 9 110 110 0 14.0000 176.700 2 38 995 14.0000 176.400 TD 30 1000 10 293
1994212N11240 1994 59 WP MM LI 1994-08-13 21:00:00 TS 14.3187 175.785 main 2714 2714 PPPP__________ EP081994 14.4500 175.600 TS 40 0 14.1348 175.922 3 40 996 0 9 110 110 14.1850 176.137 2 38 995 14.2425 175.850 TD 30 1000 11 294
1994212N11240 1994 59 WP MM LI 1994-08-14 00:00:00 TS 14.5500 175.250 40 996 tokyo main 2751 2756 OOOO__________ hurdat_epa EP081994 14.7000 175.100 TS 40 0 14.3000 175.400 3 40 996 0 9 110 110 0 14.4000 175.500 2 38 995 14.5000 175.300 TD 30 1000 11 294
1994212N11240 1994 59 WP MM LI 1994-08-14 03:00:00 TS 14.7704 174.721 main 2804 2804 PPPP__________ EP081994 14.8999 174.642 TS 37 0 14.5502 174.785 3 37 997 0 9 110 110 14.6651 174.820 2 38 995 14.7073 174.792 TD 30 1000 11 293
1994212N11240 1994 59 WP MM LI 1994-08-14 06:00:00 TS 14.9833 174.217 35 998 tokyo main 2846 2846 OOOO__________ hurdat_epa EP081994 15.1000 174.200 TS 35 0 14.8000 174.200 3 35 998 0 9 110 110 0 14.9000 174.200 2 38 995 14.9000 174.300 TD 30 1000 10 294
1994212N11240 1994 59 WP MM LI 1994-08-14 09:00:00 TS 15.1870 173.756 main 2879 2879 PPPP__________ EP081994 15.3500 173.743 TS 35 0 14.9572 173.770 3 999 0 9 15.0072 173.762 2 38 995 15.1075 173.778 TD 30 1000 9 295
1994212N11240 1994 59 WP MM LI 1994-08-14 12:00:00 TS 15.3833 173.333 1000 tokyo main 2923 2923 OOOO__________ hurdat_epa EP081994 15.6000 173.300 TS 35 0 15.1000 173.400 2 1000 0 0 0 15.1000 173.400 2 38 995 15.3000 173.300 TD 30 1000 9 296
1994212N11240 1994 59 WP MM LI 1994-08-14 15:00:00 TS 15.5699 172.932 main 2956 2956 PPPP__________ EP081994 15.7999 172.892 TS 35 0 15.2850 172.992 2 1001 0 0 15.2775 172.992 2 33 997 15.4573 172.927 TD 30 1000 8 297
1994212N11240 1994 59 WP MM LI 1994-08-14 18:00:00 TS 15.7667 172.550 1002 tokyo main 2980 2990 OOOO__________ hurdat_epa EP081994 16.0000 172.500 TS 35 0 15.5000 172.600 2 1002 0 0 0 15.5000 172.600 1 29 1000 15.6000 172.600 TD 30 1000 8 300
1994212N11240 1994 59 WP MM LI 1994-08-14 21:00:00 TS 15.9837 172.171 main 3008 3003 PPPP__________ EP081994 16.2424 172.100 TS 35 0 15.7199 172.242 2 1003 0 0 15.7199 172.242 1 29 1001 15.7350 172.242 TD 30 1000 9 303
1994212N11240 1994 59 WP MM LI 1994-08-15 00:00:00 TS 16.2333 171.800 1004 tokyo main 3010 3010 OOOO__________ hurdat_epa EP081994 16.5000 171.700 TS 35 0 16.0000 171.900 2 1004 0 0 0 16.0000 171.900 1 29 1002 15.9000 171.900 TD 30 1000 9 307
1994212N11240 1994 59 WP MM LI 1994-08-15 03:00:00 TS 16.5221 171.416 main 3023 3023 PPPP__________ EP081994 16.7500 171.285 TS 35 0 16.3775 171.535 2 1004 0 0 16.3775 171.535 1 26 1003 16.1275 171.570 TD 30 1000 9 310
1994212N11240 1994 59 WP MM LI 1994-08-15 06:00:00 TS 16.8333 171.067 1004 tokyo main 3042 3042 OOOO__________ hurdat_epa EP081994 17.0000 170.900 TS 35 0 16.8000 171.200 2 1004 0 0 0 16.8000 171.200 1 23 1004 16.4000 171.300 TD 30 1000 9 316
1994212N11240 1994 59 WP MM LI 1994-08-15 09:00:00 TS 17.1516 170.781 main 3071 3067 PPPP__________ EP081994 17.2574 170.577 TS 35 0 17.2300 170.913 2 1004 0 0 17.2300 170.913 1 23 1004 16.6774 171.127 TD 30 1000 8 321
1994212N11240 1994 59 WP MM LI 1994-08-15 12:00:00 TS 17.4500 170.550 1004 tokyo main 3093 3084 OOOO__________ hurdat_epa EP081994 17.5000 170.300 TS 35 0 17.6000 170.700 2 1004 0 0 0 17.6000 170.700 1 23 1004 17.0000 171.000 TD 30 1000 7 323
1994212N11240 1994 59 WP MM LI 1994-08-15 15:00:00 TS 17.7033 170.344 main 3089 3089 PPPP__________ EP081994 17.7225 170.027 TS 32 -1 17.8374 170.570 2 1004 0 0 17.8299 170.570 1 23 1004 17.3850 170.843 TD 30 1000 6 323
1994212N11240 1994 59 WP MM LI 1994-08-15 18:00:00 TS 17.9167 170.183 1004 tokyo main 3099 3099 OOOO__________ hurdat_epa EP081994 17.9000 169.800 TD 30 -1 18.0000 170.500 2 1004 0 0 0 18.0000 170.500 1 23 1004 17.8000 170.700 TD 30 1000 5 327
1994212N11240 1994 59 WP MM LI 1994-08-15 21:00:00 TS 18.1104 170.062 main 3110 3103 PPPP__________ EP081994 18.0149 169.635 TD 30 -1 18.1650 170.442 2 1004 0 0 18.2300 170.435 1 23 1004 18.2225 170.592 TD 30 1000 4 330
1994212N11240 1994 59 WP MM LI 1994-08-16 00:00:00 TS 18.2667 169.967 1004 tokyo main 3121 3114 OOOO__________ hurdat_epa EP081994 18.1000 169.500 TD 30 -1 18.3000 170.400 2 1004 0 0 0 18.4000 170.400 1 23 1004 18.6000 170.500 TD 30 1000 3 328
1994212N11240 1994 59 WP MM LI 1994-08-16 03:00:00 TS 18.3987 169.872 main 3123 3116 PPPP__________ EP081994 18.2000 169.342 TD 30 -1 18.4450 170.365 2 1004 0 0 18.4450 170.423 1 23 1004 18.9025 170.415 TD 30 1000 3 319
1994212N11240 1994 59 WP MM LI 1994-08-16 06:00:00 TS 18.4833 169.767 1004 tokyo main 3125 3111 OOOO__________ hurdat_epa EP081994 18.3000 169.200 TD 30 -1 18.5000 170.300 2 1004 0 0 0 18.4000 170.400 1 23 1004 19.1000 170.300 TD 30 1000 3 297
1994212N11240 1994 59 WP MM LI 1994-08-16 09:00:00 TS 18.5162 169.634 main 3111 3104 PPPP__________ EP081994 18.4000 169.085 TD 27 -1 18.3800 170.180 2 1004 0 0 18.3150 170.237 1 23 1004 19.2025 170.130 TD 30 1000 3 277
1994212N11240 1994 59 WP MM LI 1994-08-16 12:00:00 TS 18.5167 169.483 1004 tokyo main 3104 3091 OOOO__________ hurdat_epa EP081994 18.5000 169.000 TD 25 -1 18.2000 170.000 2 1004 0 0 0 18.2000 170.000 1 23 1004 19.2000 169.900 TD 30 1000 3 270
1994212N11240 1994 59 WP MM LI 1994-08-16 15:00:00 TS 18.5154 169.326 main 3091 3084 PPPP__________ EP081994 18.6075 168.942 TD 25 -1 18.0700 169.765 2 1004 0 0 18.0775 169.757 1 23 1004 19.1226 169.607 TD 30 1000 3 270
1994212N11240 1994 59 WP MM LI 1994-08-16 18:00:00 TS 18.5167 169.167 1004 tokyo main 3084 3071 OOOO__________ hurdat_epa EP081994 18.7000 168.900 TD 25 -1 18.0000 169.500 2 1004 0 0 0 18.0000 169.500 1 23 1004 19.0000 169.300 TD 30 1000 3 274
1994212N11240 1994 59 WP MM LI 1994-08-16 21:00:00 TS 18.5379 168.990 main 3071 3064 PPPP__________ EP081994 18.7500 168.835 TD 25 -1 18.0351 169.198 2 1004 0 0 18.0351 169.213 1 23 1004 18.9075 169.028 TD 30 1000 3 284
1994212N11240 1994 59 WP MM LI 1994-08-17 00:00:00 TS 18.5870 168.861 1004 tokyo main 3073 3066 OOOO__________ hurdat_epa EP081994 18.8000 168.800 TD 25 -1 18.1000 169.000 2 1004 0 0 0 18.1000 169.000 1 23 1004 18.8000 168.800 TD 30 1000 2 303
1994212N11240 1994 59 WP MM LI 1994-08-17 03:00:00 TS 18.6393 168.827 main 3066 3066 PPPP__________ EP081994 18.9000 168.820 TD 25 -1 18.1149 169.032 2 1004 0 0 18.1175 168.950 1 23 1004 18.6425 168.582 TD 30 1000 1 9
1994212N11240 1994 59 WP MM LI 1994-08-17 06:00:00 TS 18.6905 168.886 1004 tokyo main 3082 3082 OOOO__________ hurdat_epa EP081994 19.0000 168.900 TD 25 -1 18.1000 169.200 2 1004 0 0 0 18.1000 169.000 1 23 1004 18.5000 168.500 TD 30 1000 2 63
1994212N11240 1994 59 WP MM LI 1994-08-17 09:00:00 TS 18.7300 169.016 main 3088 3088 PP_P__________ EP081994 19.0575 169.020 TD 25 -1 18.0500 169.378 2 1004 0 0 1 18.4275 168.640 TD 30 1000 3 74
1994212N11240 1994 59 WP MM LI 1994-08-17 12:00:00 TS 18.7789 169.200 1004 tokyo main 3110 3110 OO_O__________ hurdat_epa EP081994 19.1000 169.200 TD 25 -1 18.0000 169.600 2 1004 0 0 0 18.4000 168.900 TD 30 1000 4 72
1994212N11240 1994 59 WP MM LI 1994-08-17 15:00:00 TS 18.8509 169.416 main 3132 3132 PP_P__________ EP081994 19.1500 169.435 TD 25 -1 17.9876 169.845 2 1004 0 0 18.3850 169.143 TD 30 1000 5 72
1994212N11240 1994 59 WP MM LI 1994-08-17 18:00:00 TS 18.9231 169.662 1004 tokyo main 3152 3152 OO_O__________ hurdat_epa EP081994 19.2000 169.700 TD 25 -1 18.0000 170.100 2 1004 0 0 0 18.4000 169.400 TD 30 1000 5 66
1994212N11240 1994 59 WP MM LI 1994-08-17 21:00:00 TS 19.0482 169.879 main 3168 3145 P__P__________ EP081994 19.2500 169.955 TD 22 -1 2 0 0 18.4426 169.652 TD 30 1000 5 68
1994212N11240 1994 59 WP MM LI 1994-08-18 00:00:00 TS 19.1000 170.125 main 3145 O__O__________ hurdat_epa EP081994 19.3000 170.200 TD 20 -1 18.5000 169.900 TD 30 1000 5 77

IBTrACS Databaseについて

本データベースは、米国NOAAが公開する1842年以降の世界の熱帯低気圧のベストトラックデータアーカイブInternational Best Track Archive for Climate Stewardship (IBTrACS)を、ウェブで閲覧しやすい形式に変換したものです。

最終更新日:2021-10-21